Lord Of The Glens — ZQOE9 — position and weather

sailwx.info

Track history (hours):
 
Tides and Currents Weather Stations Pressure Air Temp Water Temp Dewpoint Dewpoint Depression Visibility Wind Speed Wind Dir Waves Ship Positions

Lord Of The Glens

Operator: V Ships UK Ltd

Last reported at 2017-Oct-12 11:09 UTC. Time now 2017-Oct-18 09:14 UTC.
Position N 56°49' W 005°08'.

Length 45 m; draft 2.8 m.

Type: Passenger vessel. MMSI: 235000295.

Date/timePositionNaut miles runAvg speedWind from/ knotsBaromVisibWave heightAir tempDewpointWater temp
2017-Oct-12 11:09N 56°49' W 005°08'210.7
2017-Oct-12 11:00N 56°48' W 005°09'510.2
2017-Oct-12 10:30N 56°43' W 005°14'510.1
2017-Oct-12 10:00N 56°39' W 005°20'5 9.9
2017-Oct-12 09:30N 56°35' W 005°25'510.3
2017-Oct-12 09:00N 56°30' W 005°28'5 9.7
2017-Oct-12 08:30N 56°26' W 005°29'1 1.1
2017-Oct-12 07:43N 56°25' W 005°29'0 0.0
2017-Oct-12 07:25N 56°25' W 005°29'0 0.0
2017-Oct-12 03:55N 56°25' W 005°29'0 0.0
2017-Oct-12 00:46N 56°25' W 005°29'0 0.0
2017-Oct-12 00:16N 56°25' W 005°29'0 0.0
2017-Oct-11 23:55N 56°25' W 005°29'0 0.0
2017-Oct-11 23:19N 56°25' W 005°29'0 0.0
2017-Oct-11 22:58N 56°25' W 005°29'0 0.0
2017-Oct-11 22:22N 56°25' W 005°29'0 0.0
2017-Oct-11 21:55N 56°25' W 005°29'0 0.0
2017-Oct-11 21:28N 56°25' W 005°29'0 0.0
2017-Oct-11 20:58N 56°25' W 005°29'0 0.0
2017-Oct-11 20:22N 56°25' W 005°29'0 0.0
2017-Oct-11 19:55N 56°25' W 005°29'0 0.0
2017-Oct-11 19:25N 56°25' W 005°29'0 0.0
2017-Oct-11 18:49N 56°25' W 005°29'0 0.0
2017-Oct-11 18:13N 56°25' W 005°29'0 0.0
2017-Oct-11 17:55N 56°25' W 005°29'0 0.1
2017-Oct-11 17:29N 56°25' W 005°29'3 7.1
2017-Oct-11 17:00N 56°27' W 005°34'3 0.2
2017-Oct-11 00:00N 56°25' W 005°29'0 0.0
2017-Oct-10 23:28N 56°25' W 005°29'0 0.0
2017-Oct-10 23:00N 56°25' W 005°29'0 0.0
2017-Oct-10 22:29N 56°25' W 005°29'0 0.0
2017-Oct-10 22:00N 56°25' W 005°29'0 0.0
2017-Oct-10 21:30N 56°25' W 005°29'0 0.0
2017-Oct-10 21:00N 56°25' W 005°29'0 0.0
2017-Oct-10 20:30N 56°25' W 005°29'0 0.0
2017-Oct-10 20:00N 56°25' W 005°29'0 0.0
2017-Oct-10 19:30N 56°25' W 005°29'0 0.0
2017-Oct-10 18:58N 56°25' W 005°29'0 0.0
2017-Oct-10 18:29N 56°25' W 005°29'0 0.0
2017-Oct-10 18:00N 56°25' W 005°29'0 0.0
2017-Oct-10 17:28N 56°25' W 005°29'0 0.0
2017-Oct-10 16:54N 56°25' W 005°29'0 0.0
2017-Oct-10 13:56N 56°25' W 005°29'0 0.0
2017-Oct-10 13:00N 56°25' W 005°29'0 0.0
2017-Oct-10 12:24N 56°25' W 005°29'0 0.0
2017-Oct-10 11:55N 56°25' W 005°29'0 0.0
2017-Oct-10 11:30N 56°25' W 005°29'0 0.0
2017-Oct-10 11:00N 56°25' W 005°29'0 0.0
2017-Oct-10 10:29N 56°25' W 005°29'0 0.0
2017-Oct-10 09:59N 56°25' W 005°29'0 0.0
2017-Oct-10 09:28N 56°25' W 005°29'0 0.0
2017-Oct-10 09:00N 56°25' W 005°29'0 0.0
2017-Oct-10 08:30N 56°25' W 005°29'0 0.0
2017-Oct-10 07:49N 56°25' W 005°29'0 0.0
2017-Oct-10 07:27N 56°25' W 005°29'0 0.0
2017-Oct-10 07:00N 56°25' W 005°29'0 0.0
2017-Oct-10 06:30N 56°25' W 005°29'0 0.0
2017-Oct-10 05:57N 56°25' W 005°29'0 0.0
2017-Oct-10 01:17N 56°25' W 005°29'0 0.0
2017-Oct-10 00:58N 56°25' W 005°29'0 0.0
2017-Oct-10 00:24N 56°25' W 005°29'0 0.0
2017-Oct-10 00:00N 56°25' W 005°29'0 0.0
2017-Oct-09 23:23N 56°25' W 005°29'0 0.0
2017-Oct-09 23:00N 56°25' W 005°29'0 0.0
2017-Oct-09 22:30N 56°25' W 005°29'0 0.0
2017-Oct-09 22:00N 56°25' W 005°29'0 0.0
2017-Oct-09 21:30N 56°25' W 005°29'0 0.0
2017-Oct-09 21:00N 56°25' W 005°29'0 0.0
2017-Oct-09 20:30N 56°25' W 005°29'0 0.0
2017-Oct-09 20:00N 56°25' W 005°29'0 0.0
2017-Oct-09 19:30N 56°25' W 005°29'0 0.0
2017-Oct-09 19:00N 56°25' W 005°29'0 0.0
2017-Oct-09 18:30N 56°25' W 005°29'0 0.0
2017-Oct-09 18:00N 56°25' W 005°29'0 0.0
2017-Oct-09 17:30N 56°25' W 005°29'0 0.0
2017-Oct-09 16:58N 56°25' W 005°29'0 0.0
2017-Oct-09 16:30N 56°25' W 005°29'0 0.0
2017-Oct-09 16:00N 56°25' W 005°29'0 0.0
2017-Oct-09 15:30N 56°25' W 005°29'3 6.4
2017-Oct-09 15:00N 56°26' W 005°33'6 0.7
2017-Oct-09 06:46N 56°30' W 005°42'2 9.0
2017-Oct-09 06:30N 56°28' W 005°39'5 9.9
2017-Oct-09 06:00N 56°26' W 005°31'2 3.2
2017-Oct-09 05:28N 56°25' W 005°29'0 0.0
2017-Oct-09 04:58N 56°25' W 005°29'0 0.0
2017-Oct-09 02:07N 56°25' W 005°29'0 0.0
2017-Oct-09 01:49N 56°25' W 005°29'0 0.0
2017-Oct-09 01:22N 56°25' W 005°29'0 0.0
2017-Oct-09 00:58N 56°25' W 005°29'0 0.0
2017-Oct-09 00:04N 56°25' W 005°29'0 0.0
2017-Oct-08 23:46N 56°25' W 005°29'0 0.0
2017-Oct-08 23:28N 56°25' W 005°29'0 0.0
2017-Oct-08 22:58N 56°25' W 005°29'0 0.0
2017-Oct-08 22:28N 56°25' W 005°29'0 0.0
2017-Oct-08 21:58N 56°25' W 005°29'0 0.0
2017-Oct-08 21:25N 56°25' W 005°29'0 0.0
2017-Oct-08 20:58N 56°25' W 005°29'0 0.0
2017-Oct-08 20:22N 56°25' W 005°29'0 0.0
2017-Oct-08 19:58N 56°25' W 005°29'0 0.0
2017-Oct-08 19:28N 56°25' W 005°29'0 0.0
2017-Oct-08 18:58N 56°25' W 005°29'0 0.0
2017-Oct-08 15:28N 56°25' W 005°29'2 4.4
2017-Oct-08 15:00N 56°26' W 005°32'5 9.8
2017-Oct-08 14:30N 56°28' W 005°40'1 0.5
2017-Oct-08 11:45N 56°28' W 005°42'2 9.4
2017-Oct-08 11:30N 56°30' W 005°39'510.6
2017-Oct-08 11:00N 56°33' W 005°32'510.4
2017-Oct-08 10:30N 56°37' W 005°25'5 9.9
2017-Oct-08 10:00N 56°40' W 005°19'510.7
2017-Oct-08 09:30N 56°45' W 005°13'510.5
2017-Oct-08 09:00N 56°49' W 005°08'2 0.1
2017-Oct-07 12:58N 56°51' W 005°06'  
Track history (hours):
 
Tides and Currents Weather Stations Pressure Air Temp Water Temp Dewpoint Dewpoint Depression Visibility Wind Speed Wind Dir Waves Ship Positions

Lord Of The Glens

Operator: V Ships UK Ltd

Last reported at 2017-Oct-12 11:09 UTC. Time now 2017-Oct-18 09:14 UTC.
Position N 56°49' W 005°08'.

Length 45 m; draft 2.8 m.

Type: Passenger vessel. MMSI: 235000295.

Date/timePositionNaut miles runAvg speedWind from/ knotsBaromVisibWave heightAir tempDewpointWater temp
2017-Oct-12 11:09N 56°49' W 005°08'210.7
2017-Oct-12 11:00N 56°48' W 005°09'510.2
2017-Oct-12 10:30N 56°43' W 005°14'510.1
2017-Oct-12 10:00N 56°39' W 005°20'5 9.9
2017-Oct-12 09:30N 56°35' W 005°25'510.3
2017-Oct-12 09:00N 56°30' W 005°28'5 9.7
2017-Oct-12 08:30N 56°26' W 005°29'1 1.1
2017-Oct-12 07:43N 56°25' W 005°29'0 0.0
2017-Oct-12 07:25N 56°25' W 005°29'0 0.0
2017-Oct-12 03:55N 56°25' W 005°29'0 0.0
2017-Oct-12 00:46N 56°25' W 005°29'0 0.0
2017-Oct-12 00:16N 56°25' W 005°29'0 0.0
2017-Oct-11 23:55N 56°25' W 005°29'0 0.0
2017-Oct-11 23:19N 56°25' W 005°29'0 0.0
2017-Oct-11 22:58N 56°25' W 005°29'0 0.0
2017-Oct-11 22:22N 56°25' W 005°29'0 0.0
2017-Oct-11 21:55N 56°25' W 005°29'0 0.0
2017-Oct-11 21:28N 56°25' W 005°29'0 0.0
2017-Oct-11 20:58N 56°25' W 005°29'0 0.0
2017-Oct-11 20:22N 56°25' W 005°29'0 0.0
2017-Oct-11 19:55N 56°25' W 005°29'0 0.0
2017-Oct-11 19:25N 56°25' W 005°29'0 0.0
2017-Oct-11 18:49N 56°25' W 005°29'0 0.0
2017-Oct-11 18:13N 56°25' W 005°29'0 0.0
2017-Oct-11 17:55N 56°25' W 005°29'0 0.1
2017-Oct-11 17:29N 56°25' W 005°29'3 7.1
2017-Oct-11 17:00N 56°27' W 005°34'3 0.2
2017-Oct-11 00:00N 56°25' W 005°29'0 0.0
2017-Oct-10 23:28N 56°25' W 005°29'0 0.0
2017-Oct-10 23:00N 56°25' W 005°29'0 0.0
2017-Oct-10 22:29N 56°25' W 005°29'0 0.0
2017-Oct-10 22:00N 56°25' W 005°29'0 0.0
2017-Oct-10 21:30N 56°25' W 005°29'0 0.0
2017-Oct-10 21:00N 56°25' W 005°29'0 0.0
2017-Oct-10 20:30N 56°25' W 005°29'0 0.0
2017-Oct-10 20:00N 56°25' W 005°29'0 0.0
2017-Oct-10 19:30N 56°25' W 005°29'0 0.0
2017-Oct-10 18:58N 56°25' W 005°29'0 0.0
2017-Oct-10 18:29N 56°25' W 005°29'0 0.0
2017-Oct-10 18:00N 56°25' W 005°29'0 0.0
2017-Oct-10 17:28N 56°25' W 005°29'0 0.0
2017-Oct-10 16:54N 56°25' W 005°29'0 0.0
2017-Oct-10 13:56N 56°25' W 005°29'0 0.0
2017-Oct-10 13:00N 56°25' W 005°29'0 0.0
2017-Oct-10 12:24N 56°25' W 005°29'0 0.0
2017-Oct-10 11:55N 56°25' W 005°29'0 0.0
2017-Oct-10 11:30N 56°25' W 005°29'0 0.0
2017-Oct-10 11:00N 56°25' W 005°29'0 0.0
2017-Oct-10 10:29N 56°25' W 005°29'0 0.0
2017-Oct-10 09:59N 56°25' W 005°29'0 0.0
2017-Oct-10 09:28N 56°25' W 005°29'0 0.0
2017-Oct-10 09:00N 56°25' W 005°29'0 0.0
2017-Oct-10 08:30N 56°25' W 005°29'0 0.0
2017-Oct-10 07:49N 56°25' W 005°29'0 0.0
2017-Oct-10 07:27N 56°25' W 005°29'0 0.0
2017-Oct-10 07:00N 56°25' W 005°29'0 0.0
2017-Oct-10 06:30N 56°25' W 005°29'0 0.0
2017-Oct-10 05:57N 56°25' W 005°29'0 0.0
2017-Oct-10 01:17N 56°25' W 005°29'0 0.0
2017-Oct-10 00:58N 56°25' W 005°29'0 0.0
2017-Oct-10 00:24N 56°25' W 005°29'0 0.0
2017-Oct-10 00:00N 56°25' W 005°29'0 0.0
2017-Oct-09 23:23N 56°25' W 005°29'0 0.0
2017-Oct-09 23:00N 56°25' W 005°29'0 0.0
2017-Oct-09 22:30N 56°25' W 005°29'0 0.0
2017-Oct-09 22:00N 56°25' W 005°29'0 0.0
2017-Oct-09 21:30N 56°25' W 005°29'0 0.0
2017-Oct-09 21:00N 56°25' W 005°29'0 0.0
2017-Oct-09 20:30N 56°25' W 005°29'0 0.0
2017-Oct-09 20:00N 56°25' W 005°29'0 0.0
2017-Oct-09 19:30N 56°25' W 005°29'0 0.0
2017-Oct-09 19:00N 56°25' W 005°29'0 0.0
2017-Oct-09 18:30N 56°25' W 005°29'0 0.0
2017-Oct-09 18:00N 56°25' W 005°29'0 0.0
2017-Oct-09 17:30N 56°25' W 005°29'0 0.0
2017-Oct-09 16:58N 56°25' W 005°29'0 0.0
2017-Oct-09 16:30N 56°25' W 005°29'0 0.0
2017-Oct-09 16:00N 56°25' W 005°29'0 0.0
2017-Oct-09 15:30N 56°25' W 005°29'3 6.4
2017-Oct-09 15:00N 56°26' W 005°33'6 0.7
2017-Oct-09 06:46N 56°30' W 005°42'2 9.0
2017-Oct-09 06:30N 56°28' W 005°39'5 9.9
2017-Oct-09 06:00N 56°26' W 005°31'2 3.2
2017-Oct-09 05:28N 56°25' W 005°29'0 0.0
2017-Oct-09 04:58N 56°25' W 005°29'0 0.0
2017-Oct-09 02:07N 56°25' W 005°29'0 0.0
2017-Oct-09 01:49N 56°25' W 005°29'0 0.0
2017-Oct-09 01:22N 56°25' W 005°29'0 0.0
2017-Oct-09 00:58N 56°25' W 005°29'0 0.0
2017-Oct-09 00:04N 56°25' W 005°29'0 0.0
2017-Oct-08 23:46N 56°25' W 005°29'0 0.0
2017-Oct-08 23:28N 56°25' W 005°29'0 0.0
2017-Oct-08 22:58N 56°25' W 005°29'0 0.0
2017-Oct-08 22:28N 56°25' W 005°29'0 0.0
2017-Oct-08 21:58N 56°25' W 005°29'0 0.0
2017-Oct-08 21:25N 56°25' W 005°29'0 0.0
2017-Oct-08 20:58N 56°25' W 005°29'0 0.0
2017-Oct-08 20:22N 56°25' W 005°29'0 0.0
2017-Oct-08 19:58N 56°25' W 005°29'0 0.0
2017-Oct-08 19:28N 56°25' W 005°29'0 0.0
2017-Oct-08 18:58N 56°25' W 005°29'0 0.0
2017-Oct-08 15:28N 56°25' W 005°29'2 4.4
2017-Oct-08 15:00N 56°26' W 005°32'5 9.8
2017-Oct-08 14:30N 56°28' W 005°40'1 0.5
2017-Oct-08 11:45N 56°28' W 005°42'2 9.4
2017-Oct-08 11:30N 56°30' W 005°39'510.6
2017-Oct-08 11:00N 56°33' W 005°32'510.4
2017-Oct-08 10:30N 56°37' W 005°25'5 9.9
2017-Oct-08 10:00N 56°40' W 005°19'510.7
2017-Oct-08 09:30N 56°45' W 005°13'510.5
2017-Oct-08 09:00N 56°49' W 005°08'2 0.1
2017-Oct-07 12:58N 56°51' W 005°06'  

Dump ship's entire track history